Coldwater, Canada
Current Conditions -  °F | °C
As of 8:00 PM on Friday 28 Nov 2014 (Local Time) from CYQA Reporting Station
Overcast Overcast  
Wind Chill: 19°   Ceiling: 3900
Heat Index: 19°   Visibility: 9mi
Dew Point: 12°   Wind: 0mph
Humidity: 74%   Direction: NA
Pressure: 30.14"   Gusts: NA
Location:  44.71°N, 79.64°W
Report Text: CYQA 290100Z AUTO 00000KT 9SM BKN039 OVC110 M07/M11 A3014 RMK SLP228
Loading
Personal Weather Stations






























Interactive Weather Map New forecast layout! Learn more

10-Day Weather Forecast

Advertisements
Track Severe Weather on mobile